Home > Products > Valid Products > TAF

000
FTUS44 KLZK 311100
TAFPBF
TAF
KPBF 311120Z 3112/0112 32008KT P6SM SKC
     FM311500 35014G24KT P6SM SCT040
     FM010300 01008KT P6SM SKC=



000
FTUS44 KLZK 311100
TAFHOT
TAF
KHOT 311120Z 3112/0112 33005KT P6SM SKC
     FM311500 35012G20KT P6SM SCT035
     FM010200 01008KT P6SM SKC=



000
FTUS44 KLZK 311100
TAFLIT
TAF
KLIT 311120Z 3112/0112 32010G16KT P6SM SKC
     FM311500 35015G25KT P6SM SCT040
     FM010200 01008KT P6SM SKC=



000
FTUS44 KLZK 311100
TAFHRO
TAF
KHRO 311120Z 3112/0112 34008G15KT P6SM SCT050
     FM311400 35014G22KT P6SM SCT020 BKN050
      TEMPO 3114/3118 BKN020
     FM010000 01006KT P6SM SKC=



000
FTUS44 KLZK 310500
TAFPBF
TAF
KPBF 310520Z 3106/0106 27005KT P6SM SCT060
     FM311500 35015G24KT P6SM SCT040
     FM010000 01008G16KT P6SM SKC=



000
FTUS44 KLZK 310500
TAFLIT
TAF
KLIT 310520Z 3106/0106 27005KT P6SM SCT060
     FM311400 35015G24KT P6SM SCT040
     FM312300 01008G16KT P6SM SKC=



000
FTUS44 KLZK 310500
TAFHOT
TAF
KHOT 310520Z 3106/0106 33005KT P6SM SKC
      TEMPO 3109/3113 5SM BR
     FM311600 35012G20KT P6SM SCT035
     FM010000 01008G15KT P6SM SKC=



000
FTUS44 KLZK 310500
TAFHRO
TAF
KHRO 310520Z 3106/0106 32007KT P6SM SCT050
     FM311200 35012G22KT P6SM SCT020 BKN050
      TEMPO 3115/3119 BKN020
     FM312100 36008G16KT P6SM SKC=



000
FTUS44 KLZK 310100 AAA
TAFHRO
TAF AMD
KHRO 310102Z 3101/3124 29006KT P6SM SKC
     FM310400 32007KT P6SM SCT050
     FM311100 31009KT P6SM BKN050
     FM311400 33010G18KT P6SM SCT060=



000
FTUS44 KLZK 302300
TAFLIT
TAF
KLIT 302330Z 3100/3124 21006KT P6SM FEW090
     FM310230 30010KT P6SM SCT060
     FM311000 33008KT P6SM SCT035
     FM311500 35010G20KT P6SM SCT040=



000
FTUS44 KLZK 302300
TAFPBF
TAF
KPBF 302330Z 3100/3124 20004KT P6SM BKN090
     FM310230 30010KT P6SM SCT060
     FM311000 33008KT P6SM SCT035
     FM311500 35012G22KT P6SM SCT040=



000
FTUS44 KLZK 302300
TAFHRO
TAF
KHRO 302330Z 3100/3124 30010G17KT P6SM SKC
     FM310400 32007KT P6SM SCT050
     FM311100 31009KT P6SM BKN050
     FM311400 33010G18KT P6SM SCT060=



000
FTUS44 KLZK 302300
TAFHOT
TAF
KHOT 302330Z 3100/3124 24005KT P6SM SKC
     FM310230 33008KT P6SM SKC
     FM310900 33008KT P6SM SCT035
     FM311400 35008G18KT P6SM SCT040=



000
FTUS44 KLZK 302200 AAB
TAFHRO
TAF AMD
KHRO 302202Z 3022/3118 30011KT P6SM SKC
     FM310400 32007KT P6SM BKN035
     FM311400 33010G18KT P6SM SCT040=



000
FTUS44 KLZK 302200 AAB
TAFHRO
TAF AMD
KHRO 302202Z 3022/3118 30011KT P6SM SKC
     FM310400 32007KT P6SM BKN035
     FM311400 33010G18KT P6SM SCT040=



000
FTUS44 KLZK 302000 AAA
TAFHOT
TAF AMD
KHOT 302038Z 3021/3118 23008KT P6SM VCSH BKN090
     FM302300 30010KT P6SM SCT060
     FM310900 33008KT P6SM SCT035
      TEMPO 3109/3113 3SM BR SCT020
     FM311400 35008G18KT P6SM SCT040=



000
FTUS44 KLZK 302000 AAA
TAFHRO
TAF AMD
KHRO 302032Z 3021/3118 26009G16KT P6SM SKC
     FM310400 32007KT P6SM BKN035
     FM311400 33010G18KT P6SM SCT040=



000
FTUS44 KLZK 302000 AAA
TAFLIT
TAF AMD
KLIT 302027Z 3020/3118 23009KT P6SM VCSH BKN120
     FM310100 30010KT P6SM SCT060
     FM311000 33008KT P6SM SCT035
     FM311500 35010G20KT P6SM SCT040=



000
FTUS44 KLZK 301700 RRA
TAFHOT
TAF
KHOT 301747Z 3018/3118 21008KT P6SM SCT100
     FM302300 30010KT P6SM SCT060
     FM310900 33008KT P6SM SCT035
      TEMPO 3109/3113 3SM BR SCT020
     FM311400 35008G18KT P6SM SCT040=



000
FTUS44 KLZK 301700 RRA
TAFPBF
TAF
KPBF 301747Z 3018/3118 20006KT P6SM SCT100
     FM310200 30009KT P6SM SCT060
     FM311500 34010G20KT P6SM SCT040=



000
FTUS44 KLZK 301700 RRA
TAFLIT
TAF
KLIT 301747Z 3018/3118 21008KT P6SM SCT100
     FM310100 30010KT P6SM SCT060
     FM311000 33008KT P6SM SCT035
     FM311500 35010G20KT P6SM SCT040=



000
FTUS44 KLZK 301700 RRA
TAFHRO
TAF
KHRO 301747Z 3018/3118 19006KT P6SM VCSH BKN070 BKN120
     FM302100 30010G18KT P6SM SCT060
     FM310400 32007KT P6SM BKN035
     FM311400 33010G18KT P6SM SCT040=



000
FTUS44 KLZK 301700 RRA
TAFPBF
TAF
KPBF 301747Z 3018/3118 20006KT P6SM SCT100
     FM310200 30009KT P6SM SCT060
     FM311500 34010G20KT P6SM SCT040=



000
FTUS44 KLZK 301700 RRA
TAFHRO
TAF
KHRO 301747Z 3018/3118 19006KT P6SM VCSH BKN070 BKN120
     FM302100 30010G18KT P6SM SCT060
     FM310400 32007KT P6SM BKN035
     FM311400 33010G18KT P6SM SCT040=



000
FTUS44 KLZK 301700 RRA
TAFHOT
TAF
KHOT 301747Z 3018/3118 21008KT P6SM SCT100
     FM302300 30010KT P6SM SCT060
     FM310900 33008KT P6SM SCT035
      TEMPO 3109/3113 3SM BR SCT020
     FM311400 35008G18KT P6SM SCT040=



000
FTUS44 KLZK 301700 RRA
TAFLIT
TAF
KLIT 301747Z 3018/3118 21008KT P6SM SCT100
     FM310100 30010KT P6SM SCT060
     FM311000 33008KT P6SM SCT035
     FM311500 35010G20KT P6SM SCT040=



000
FTUS44 KLZK 301300 AAA
TAFHOT
TAF AMD
KHOT 301316Z 3013/3112 00000KT 4SM BR SCT001
      TEMPO 3013/3014 1/4SM FG BKN001
     FM301500 21008KT P6SM SCT060
     FM310400 34008G16KT P6SM SKC=



000
FTUS44 KLZK 301100
TAFHRO
TAF
KHRO 301120Z 3012/3112 VRB03KT P6SM SKC
     FM301400 22006KT P6SM VCSH BKN060 BKN250
     FM302300 34008G18KT P6SM FEW060=



000
FTUS44 KLZK 301100
TAFPBF
TAF
KPBF 301120Z 3012/3112 19004KT P6SM FEW150
     FM302000 22007KT P6SM BKN060
     FM310700 34008G16KT P6SM SKC=



000
FTUS44 KLZK 301100
TAFHOT
TAF
KHOT 301120Z 3012/3112 00000KT P6SM SKC
      TEMPO 3012/3013 1SM BR BKN001
     FM301400 19006KT P6SM SCT120
     FM301800 22008KT P6SM VCSH BKN060
     FM310400 34008G16KT P6SM SKC=



000
FTUS44 KLZK 301100
TAFLIT
TAF
KLIT 301120Z 3012/3112 20006KT P6SM FEW150
     FM301900 22007KT P6SM VCSH BKN060
     FM310600 34008G16KT P6SM SKC=



000
FTUS44 KLZK 301000 AAB
TAFHOT
TAF AMD
KHOT 301010Z 3010/3106 VRB02KT P6SM SKC
      TEMPO 3010/3013 1/4SM FG BKN001
     FM301400 19006KT P6SM SCT120
     FM301800 22008KT P6SM VCSH BKN080=



000
FTUS44 KLZK 300900 AAA
TAFHOT
TAF AMD
KHOT 300904Z 3009/3106 VRB02KT P6SM SKC
      TEMPO 3009/3013 1SM BR BKN001
     FM301400 19006KT P6SM SCT120
     FM301800 22008KT P6SM VCSH BKN080=



000
FTUS44 KLZK 300500
TAFPBF
TAF
KPBF 300520Z 3006/3106 VRB05KT P6SM SKC
      TEMPO 3009/3013 5SM BR
     FM302000 21007KT P6SM BKN120=



000
FTUS44 KLZK 300500
TAFLIT
TAF
KLIT 300520Z 3006/3106 VRB02KT P6SM SKC
      TEMPO 3010/3013 5SM BR
     FM301500 18004KT P6SM FEW150
     FM302300 20007KT P6SM VCSH BKN080=



000
FTUS44 KLZK 300500
TAFHOT
TAF
KHOT 300520Z 3006/3106 VRB02KT P6SM SKC
      TEMPO 3009/3013 5SM BR
     FM301400 19006KT P6SM SCT120
     FM301800 22008KT P6SM VCSH BKN080=



000
FTUS44 KLZK 300500
TAFHRO
TAF
KHRO 300520Z 3006/3106 VRB03KT P6SM SKC
     FM301400 21006KT P6SM VCSH SCT100
     FM302300 34009KT P6SM SCT060=



000
FTUS44 KLZK 292300
TAFPBF
TAF
KPBF 292320Z 3000/3024 VRB06KT P6SM SKC
     FM301500 13005KT P6SM SKC
     FM301800 21007KT P6SM SKC=



000
FTUS44 KLZK 292300
TAFHOT
TAF
KHOT 292320Z 3000/3024 VRB04KT P6SM SKC
     FM301500 15006KT P6SM SKC
     FM301800 22008KT P6SM SKC=



000
FTUS44 KLZK 292300
TAFLIT
TAF
KLIT 292320Z 3000/3024 VRB05KT P6SM SKC
     FM301500 15005KT P6SM SKC
     FM301800 21007KT P6SM SKC=



000
FTUS44 KLZK 292300
TAFHRO
TAF
KHRO 292320Z 3000/3024 VRB04KT P6SM SKC
     FM301400 16006KT P6SM SCT100
     FM301800 24009KT P6SM SCT100=



000
FTUS44 KLZK 291700
TAFLIT
TAF
KLIT 291739Z 2918/3018 35006KT P6SM SKC
     FM300100 00000KT P6SM SKC
     FM301500 15005KT P6SM SKC=



000
FTUS44 KLZK 291700
TAFPBF
TAF
KPBF 291739Z 2918/3018 03006KT P6SM SKC
     FM300100 00000KT P6SM SKC
     FM301500 13005KT P6SM SKC=



000
FTUS44 KLZK 291700
TAFHRO
TAF
KHRO 291739Z 2918/3018 33007KT P6SM SKC
     FM300100 00000KT P6SM SKC
     FM301400 16006KT P6SM SCT100=



000
FTUS44 KLZK 291700
TAFHOT
TAF
KHOT 291739Z 2918/3018 01006KT P6SM SKC
     FM300100 00000KT P6SM SKC
     FM301500 15006KT P6SM SKC=



000
FTUS44 KLZK 291100
TAFLIT
TAF
KLIT 291120Z 2912/3012 VRB03KT P6SM VCFG SCT250
     FM291400 02007KT P6SM SCT250
     FM300100 VRB02KT P6SM SKC=



000
FTUS44 KLZK 291100
TAFHOT
TAF
KHOT 291120Z 2912/3012 VRB03KT P6SM VCFG SCT250
      TEMPO 2912/2913 5SM BR
     FM291400 04006KT P6SM SCT250
     FM300100 VRB02KT P6SM SKC=



000
FTUS44 KLZK 291100
TAFHRO
TAF
KHRO 291120Z 2912/3012 VRB03KT P6SM SCT250
     FM291400 35007KT P6SM SCT250
     FM300100 VRB02KT P6SM SKC=



000
FTUS44 KLZK 291100
TAFPBF
TAF
KPBF 291120Z 2912/3012 36005KT P6SM VCFG SCT080 BKN250
     FM291400 03007KT P6SM SCT250
     FM300100 VRB02KT P6SM SKC=



000
FTUS44 KLZK 290500
TAFPBF
TAF
KPBF 290520Z 2906/3006 03007KT P6SM VCSH SCT030 OVC050
      TEMPO 2906/2908 -SHRA BKN025
     FM290800 02006KT P6SM SCT025 BKN250
      TEMPO 2909/2913 5SM BR
     FM291400 03007KT P6SM SCT250=



000
FTUS44 KLZK 290500
TAFLIT
TAF
KLIT 290520Z 2906/3006 03005KT P6SM SCT060 BKN250
      TEMPO 2909/2913 5SM BR
     FM291400 02007KT P6SM SCT250=



000
FTUS44 KLZK 290500
TAFHOT
TAF
KHOT 290520Z 2906/3006 VRB03KT P6SM BKN060 BKN250
      TEMPO 2909/2913 5SM BR
     FM291400 04006KT P6SM SCT250=



000
FTUS44 KLZK 290500
TAFHRO
TAF
KHRO 290520Z 2906/3006 VRB03KT P6SM SCT250
     FM291400 35006KT P6SM SCT250=



000
FTUS44 KLZK 290300 AAB
TAFPBF
TAF AMD
KPBF 290317Z 2903/2924 02007KT P6SM VCSH SCT030 OVC050
      TEMPO 2903/2907 BKN030
     FM291000 02006KT P6SM SCT060 BKN250
     FM291400 03007KT P6SM SCT250=



000
FTUS44 KLZK 290100 AAA
TAFPBF
TAF AMD
KPBF 290142Z 2902/2924 01007KT P6SM VCSH SCT007 OVC025
      TEMPO 2902/2904 4SM SHRA BR BKN007
     FM290400 01006KT P6SM VCSH SCT030 OVC050
      TEMPO 2904/2908 BKN030
     FM291100 01006KT P6SM SCT060 BKN250
     FM291400 03007KT P6SM SCT250=



000
FTUS44 KLZK 290100 AAA
TAFPBF
TAF AMD
KPBF 290142Z 2902/2924 01007KT P6SM VCSH SCT007 OVC025
      TEMPO 2902/2904 4SM SHRA BR BKN007
     FM290400 01006KT P6SM VCSH SCT030 OVC050
      TEMPO 2904/2908 BKN030
     FM291100 01006KT P6SM SCT060 BKN250
     FM291400 03007KT P6SM SCT250=



000
FTUS44 KLZK 290100 AAA
TAFLIT
TAF AMD
KLIT 290137Z 2902/2924 02005KT P6SM SCT030 OVC050
      TEMPO 2902/2906 BKN030
     FM291000 02005KT P6SM SCT060 BKN250
     FM291400 03007KT P6SM SCT250=



000
FTUS44 KLZK 290100 AAA
TAFLIT
TAF AMD
KLIT 290137Z 2902/2924 02005KT P6SM SCT030 OVC050
      TEMPO 2902/2906 BKN030
     FM291000 02005KT P6SM SCT060 BKN250
     FM291400 03007KT P6SM SCT250=



000
FTUS44 KLZK 290100 AAA
TAFHOT
TAF AMD
KHOT 290136Z 2902/2924 04004KT P6SM OVC050
     FM291000 04003KT P6SM SCT060 BKN250
     FM291400 05006KT P6SM SCT250=



000
FTUS44 KLZK 290100 AAA
TAFHOT
TAF AMD
KHOT 290136Z 2902/2924 04004KT P6SM OVC050
     FM291000 04003KT P6SM SCT060 BKN250
     FM291400 05006KT P6SM SCT250=



000
FTUS44 KLZK 282300 RRA
TAFLIT
TAF
KLIT 282344Z 2900/2924 02007KT 6SM BR VCSH SCT007 OVC015
      TEMPO 2900/2902 4SM BR BKN007
     FM290200 02006KT P6SM OVC015
      TEMPO 2903/2907 5SM BR SCT015 BKN060
     FM290700 01005KT P6SM BKN060
     FM291100 01005KT P6SM SCT060 BKN250
     FM291400 03007KT P6SM SCT250=



000
FTUS44 KLZK 282300 RRA
TAFHRO
TAF
KHRO 282344Z 2900/2924 31003KT P6SM BKN250
     FM291400 33006KT P6SM SCT250=



000
FTUS44 KLZK 282300 RRA
TAFPBF
TAF
KPBF 282344Z 2900/2924 35005KT 6SM -RA BR OVC005
      TEMPO 2900/2903 3SM -TSRA BR SCT007 OVC015CB
     FM290300 01006KT 5SM BR VCSH SCT012 BKN025
     FM290700 01006KT P6SM SCT025 BKN060
     FM291400 03007KT P6SM SCT060 SCT250=



000
FTUS44 KLZK 282300 RRA
TAFHOT
TAF
KHOT 282344Z 2900/2924 03004KT P6SM OVC015
      TEMPO 2902/2906 SCT015 BKN060
     FM290600 04003KT P6SM BKN060
     FM291100 04003KT P6SM SCT060 BKN250
     FM291400 05006KT P6SM SCT250=



000
FTUS44 KLZK 282200 AAA
TAFHOT
TAF AMD
KHOT 282203Z 2822/2918 04005KT P6SM VCSH OVC012
      TEMPO 2822/2902 SCT012 OVC020
     FM290200 04005KT P6SM VCSH BKN040
     FM290800 06004KT P6SM SCT040=



000
FTUS44 KLZK 282100 AAB
TAFPBF
TAF AMD
KPBF 282159Z 2822/2918 35005KT 6SM -RA BR OVC005
      TEMPO 2822/2902 3SM -TSRA BR SCT007 OVC015CB
     FM290200 02006KT P6SM VCSH SCT012 BKN025
     FM291300 06004KT P6SM SCT040=



000
FTUS44 KLZK 282100 AAA
TAFLIT
TAF AMD
KLIT 282157Z 2822/2918 35006KT 5SM BR VCSH OVC005
      TEMPO 2822/2902 3SM -DZ SCT007 OVC015
     FM290200 04005KT P6SM VCSH SCT015 BKN040
     FM290900 06004KT P6SM SCT040=



000
FTUS44 KLZK 282000 AAA
TAFPBF
TAF AMD
KPBF 282055Z 2821/2918 28005KT 6SM BR VCSH SCT007 OVC020
      TEMPO 2821/2823 3SM -TSRA BR BKN007CB
     FM282300 34006KT P6SM VCSH SCT012 BKN025
     FM291300 06004KT P6SM SCT040=



000
FTUS44 KLZK 281700
TAFHOT
TAF
KHOT 281740Z 2818/2918 VRB03KT P6SM VCSH SCT007 OVC015
      TEMPO 2818/2820 4SM BR BKN007
     FM282000 34006KT P6SM VCSH SCT012 BKN025
     FM290000 04005KT P6SM VCSH BKN040
     FM290800 06004KT P6SM SCT040=



000
FTUS44 KLZK 281700
TAFLIT
TAF
KLIT 281740Z 2818/2918 30006KT P6SM VCSH SCT007 OVC015
      TEMPO 2818/2821 4SM BR BKN007
     FM282100 34006KT P6SM VCSH SCT012 BKN025
     FM290100 04005KT P6SM VCSH BKN040
     FM290900 06004KT P6SM SCT040=



000
FTUS44 KLZK 281700
TAFPBF
TAF
KPBF 281740Z 2818/2918 18008KT P6SM VCSH SCT015 BKN050
     FM281900 28007KT P6SM VCSH SCT007 BKN015
      TEMPO 2819/2823 3SM BR BKN007
     FM282300 34006KT P6SM VCSH SCT012 BKN025
     FM291300 06004KT P6SM SCT040=



000
FTUS44 KLZK 281700
TAFHRO
TAF
KHRO 281740Z 2818/2918 35007KT P6SM SCT050 SCT250
     FM290000 01005KT P6SM SCT250=



000
FTUS44 KLZK 281400 AAA
TAFPBF
TAF AMD
KPBF 281449Z 2815/2912 20008KT P6SM VCSH SCT015 BKN050
      TEMPO 2815/2816 4SM BR BKN015
     FM281600 22007KT P6SM VCTS BKN025 OVC050CB
     FM282000 35008KT P6SM VCTS OVC050CB
     FM290300 02006KT P6SM -SHRA OVC050=



000
FTUS44 KLZK 281400 AAA
TAFHRO
TAF AMD
KHRO 281449Z 2815/2912 34007KT P6SM BKN040
     FM281700 36009KT P6SM SCT050 SCT250
     FM290000 36005KT P6SM SCT250=



000
FTUS44 KLZK 281400 AAA
TAFLIT
TAF AMD
KLIT 281449Z 2815/2912 17004KT P6SM VCTS SCT015 BKN050CB
      TEMPO 2815/2818 3SM -TSRA BR BKN008CB
     FM281800 22006KT P6SM VCSH BKN025 OVC050
      TEMPO 2818/2821 4SM -SHRA BR BKN015
     FM282100 36008KT P6SM VCSH OVC050
     FM290000 02006KT P6SM VCSH BKN050 OVC100=



000
FTUS44 KLZK 281400 AAA
TAFHOT
TAF AMD
KHOT 281449Z 2815/2912 22005KT P6SM VCTS OVC025CB
      TEMPO 2815/2818 5SM -TSRA BR BKN012CB
     FM281800 32008KT P6SM VCSH BKN025 OVC050
     FM290000 04005KT P6SM VCSH BKN050 OVC100=



000
FTUS44 KLZK 281100 RRA
TAFHRO
TAF
KHRO 281140Z 2812/2912 32008KT P6SM VCSH BKN015 OVC040
     FM281400 34012KT P6SM SCT050 BKN100
     FM281800 36008KT P6SM BKN250
     FM290000 36005KT P6SM SCT250=



000
FTUS44 KLZK 281100 RRA
TAFHOT
TAF
KHOT 281140Z 2812/2912 VRB06KT P6SM VCTS SCT007 OVC015CB
      TEMPO 2812/2814 4SM -TSRA BR BKN007CB
     FM281400 34009KT P6SM VCTS OVC025CB
      TEMPO 2814/2818 5SM -TSRA BR BKN010CB
     FM281800 02008KT P6SM VCSH BKN025 OVC050
     FM290000 04005KT P6SM VCSH BKN050 OVC100=



000
FTUS44 KLZK 281100 RRA
TAFPBF
TAF
KPBF 281140Z 2812/2912 20012KT P6SM SCT025 BKN050
      TEMPO 2812/2815 5SM BR BKN025
     FM281500 22012KT P6SM VCTS BKN025 OVC050CB
     FM282000 35008KT P6SM VCTS OVC050CB
     FM290400 02006KT P6SM -SHRA OVC050=



000
FTUS44 KLZK 281100 RRA
TAFLIT
TAF
KLIT 281140Z 2812/2912 22008KT P6SM VCTS SCT015 BKN050CB
      TEMPO 2812/2815 4SM -TSRA BR BKN015CB
     FM281500 VRB06KT P6SM BKN025 OVC050
      TEMPO 2815/2818 4SM -SHRA BR BKN015
     FM281800 36008KT P6SM VCSH OVC050
     FM290000 02006KT P6SM VCSH BKN050 OVC100=



    US Dept of Commerce
    National Oceanic and Atmospheric Administration
    National Weather Service
    1325 East West Highway
    Silver Spring, MD 20910
    Page Author: NWS Internet Services Team
Disclaimer
Information Quality
Credits
Glossary
Privacy Policy
Freedom of Information Act (FOIA)
About Us
Career Opportunities